Time;durP1;ratioP1;P1;durP2;ratioP2;P2;SDS_P1;SDS_P2;PMS_P1;PMS_P2;Temp;Humidity;BMP_temperature;BMP_pressure;BME280_temperature;BME280_humidity;BME280_pressure;Samples;Min_cycle;Max_cycle;Signal;HPM_P1;HPM_P2
2022/01/25 00:29:14;;;;;;;18.27;13.45;;;;;;;;;;10479432;28;20331;-77
2022/01/25 00:34:16;;;;;;;15.13;12.70;;;;;;;;;;10468014;28;20273;-79
2022/01/25 00:39:17;;;;;;;18.58;13.15;;;;;;;;;;10485150;28;20229;-79
2022/01/25 00:44:18;;;;;;;16.23;13.02;;;;;;;;;;10444781;28;1224713;-78
2022/01/25 00:49:27;;;;;;;19.40;13.90;;;;;;;;;;10453522;28;20277;-79
2022/01/25 00:54:31;;;;;;;16.52;13.18;;;;;;;;;;10481205;28;20312;-78
2022/01/25 00:59:32;;;;;;;18.52;13.32;;;;;;;;;;10450853;28;20209;-78
2022/01/25 01:04:33;;;;;;;17.63;13.75;;;;;;;;;;10457892;28;20218;-78
2022/01/25 01:09:36;;;;;;;20.83;14.45;;;;;;;;;;10460055;28;20300;-79
2022/01/25 01:14:59;;;;;;;21.40;14.32;;;;;;;;;;10477257;28;20921;-79
2022/01/25 01:36:48;;;;;;;27.85;16.45;;;;;;;;;;10426827;28;20354;-77
2022/01/25 01:42:00;;;;;;;22.08;15.23;;;;;;;;;;10478003;28;20221;-77
2022/01/25 01:47:08;;;;;;;22.95;15.88;;;;;;;;;;10476321;28;20220;-77
2022/01/25 01:52:11;;;;;;;22.95;15.57;;;;;;;;;;10457238;28;20229;-77
2022/01/25 01:57:12;;;;;;;24.48;16.27;;;;;;;;;;10463007;28;20202;-77
2022/01/25 02:02:13;;;;;;;25.00;15.60;;;;;;;;;;10475596;28;20281;-77
2022/01/25 02:07:14;;;;;;;27.55;17.00;;;;;;;;;;10449428;28;20271;-77
2022/01/25 02:12:15;;;;;;;27.48;17.40;;;;;;;;;;10451590;28;20194;-76
2022/01/25 02:22:35;;;;;;;28.13;17.23;;;;;;;;;;10466519;28;20197;-78
2022/01/25 02:27:36;;;;;;;28.15;16.85;;;;;;;;;;10476463;28;20255;-78
2022/01/25 02:32:37;;;;;;;31.20;17.73;;;;;;;;;;10478677;28;20258;-77
2022/01/25 02:37:38;;;;;;;27.73;17.38;;;;;;;;;;10473157;28;20803;-78
2022/01/25 02:42:39;;;;;;;31.25;17.90;;;;;;;;;;10483784;28;20217;-79
2022/01/25 02:53:00;;;;;;;34.83;18.20;;;;;;;;;;10479132;28;20607;-75
2022/01/25 02:58:01;;;;;;;35.58;19.00;;;;;;;;;;10480438;28;20322;-78
2022/01/25 03:03:02;;;;;;;36.85;19.40;;;;;;;;;;10456078;28;20217;-76
2022/01/25 03:08:04;;;;;;;30.80;17.73;;;;;;;;;;10475857;28;20205;-75
2022/01/25 03:13:08;;;;;;;33.75;18.85;;;;;;;;;;10459873;28;20281;-75
2022/01/25 03:18:23;;;;;;;31.77;18.13;;;;;;;;;;10460114;28;20197;-77
2022/01/25 03:23:24;;;;;;;33.47;17.50;;;;;;;;;;10461569;28;20200;-78
2022/01/25 03:28:26;;;;;;;34.97;18.63;;;;;;;;;;10482103;28;20213;-75
2022/01/25 03:33:27;;;;;;;35.47;18.08;;;;;;;;;;10468259;28;20209;-76
2022/01/25 03:38:28;;;;;;;36.17;18.00;;;;;;;;;;10480390;28;20347;-77
2022/01/25 03:43:29;;;;;;;33.80;17.08;;;;;;;;;;10485886;28;20601;-76
2022/01/25 03:53:32;;;;;;;28.15;15.32;;;;;;;;;;10463041;28;20201;-77
2022/01/25 03:58:33;;;;;;;29.33;16.50;;;;;;;;;;10478945;28;20190;-76
2022/01/25 04:03:40;;;;;;;37.72;17.08;;;;;;;;;;10475055;28;20213;-76
2022/01/25 04:08:41;;;;;;;30.95;16.20;;;;;;;;;;10474510;28;20213;-75
2022/01/25 04:13:42;;;;;;;26.88;14.75;;;;;;;;;;10461736;28;20198;-76
2022/01/25 04:18:58;;;;;;;26.25;15.52;;;;;;;;;;10460977;28;20228;-78
2022/01/25 04:29:20;;;;;;;27.20;15.43;;;;;;;;;;10458413;28;20210;-77
2022/01/25 04:50:01;;;;;;;29.90;17.58;;;;;;;;;;10479079;28;20216;-76
2022/01/25 04:55:12;;;;;;;29.50;17.27;;;;;;;;;;10481363;28;20200;-76
2022/01/25 05:00:22;;;;;;;28.80;16.77;;;;;;;;;;10463561;28;20210;-77
2022/01/25 05:05:32;;;;;;;33.35;18.00;;;;;;;;;;10449944;28;20193;-76
2022/01/25 05:10:46;;;;;;;36.85;19.52;;;;;;;;;;10445520;28;20241;-77
2022/01/25 05:26:07;;;;;;;36.58;18.77;;;;;;;;;;10472007;28;20193;-77
2022/01/25 05:31:09;;;;;;;34.20;18.42;;;;;;;;;;10453798;28;20233;-77
2022/01/25 05:36:10;;;;;;;35.15;19.13;;;;;;;;;;10456257;28;20193;-76
2022/01/25 05:41:13;;;;;;;41.50;20.35;;;;;;;;;;10447940;28;20190;-76
2022/01/25 05:46:17;;;;;;;44.47;21.25;;;;;;;;;;10477371;28;20194;-77
2022/01/25 05:51:18;;;;;;;45.60;22.15;;;;;;;;;;10446119;28;20202;-77
2022/01/25 05:56:19;;;;;;;51.28;22.70;;;;;;;;;;10477116;28;20217;-76
2022/01/25 06:01:20;;;;;;;45.55;21.63;;;;;;;;;;10463552;28;20220;-76
2022/01/25 06:06:21;;;;;;;42.72;21.10;;;;;;;;;;10456080;28;20186;-77
2022/01/25 06:11:22;;;;;;;47.15;22.10;;;;;;;;;;10444984;28;20217;-75
2022/01/25 06:16:28;;;;;;;42.53;21.75;;;;;;;;;;10450042;28;20194;-76
2022/01/25 06:21:29;;;;;;;46.75;22.67;;;;;;;;;;10460181;28;20194;-77
2022/01/25 06:26:30;;;;;;;47.15;22.67;;;;;;;;;;10481663;28;20197;-75
2022/01/25 06:31:31;;;;;;;42.92;20.70;;;;;;;;;;10481247;28;20206;-76
2022/01/25 06:36:32;;;;;;;46.83;21.80;;;;;;;;;;10453629;28;20212;-74
2022/01/25 06:41:36;;;;;;;44.78;21.63;;;;;;;;;;10459721;28;20213;-75
2022/01/25 06:46:37;;;;;;;47.25;22.13;;;;;;;;;;10464636;28;20208;-76
2022/01/25 06:51:38;;;;;;;47.70;22.27;;;;;;;;;;10488029;28;20189;-75
2022/01/25 06:56:40;;;;;;;54.65;22.88;;;;;;;;;;10490271;28;20559;-75
2022/01/25 07:01:43;;;;;;;52.35;22.13;;;;;;;;;;10459875;28;20217;-76
2022/01/25 07:06:44;;;;;;;43.05;20.75;;;;;;;;;;10472667;28;20213;-77
2022/01/25 07:11:45;;;;;;;41.72;20.63;;;;;;;;;;10459676;28;20186;-81
2022/01/25 07:16:46;;;;;;;47.45;19.83;;;;;;;;;;10469284;28;20186;-80
2022/01/25 07:21:47;;;;;;;38.15;17.05;;;;;;;;;;10493727;28;20239;-79
2022/01/25 07:26:50;;;;;;;32.15;14.73;;;;;;;;;;10475422;28;20217;-82
2022/01/25 07:31:51;;;;;;;39.70;17.83;;;;;;;;;;10479240;28;20299;-79
2022/01/25 07:36:53;;;;;;;35.47;17.08;;;;;;;;;;10477398;28;20200;-80
2022/01/25 07:41:57;;;;;;;33.70;15.43;;;;;;;;;;10497793;28;20221;-79
2022/01/25 07:47:02;;;;;;;37.53;16.05;;;;;;;;;;10477030;28;20805;-79
2022/01/25 07:52:04;;;;;;;33.80;14.77;;;;;;;;;;10461959;28;20182;-81
2022/01/25 07:57:05;;;;;;;33.67;15.30;;;;;;;;;;10468739;28;20214;-78
2022/01/25 08:02:06;;;;;;;35.17;16.10;;;;;;;;;;10483245;28;20218;-78
2022/01/25 08:07:07;;;;;;;33.97;16.05;;;;;;;;;;10483536;28;20254;-80
2022/01/25 08:12:10;;;;;;;38.67;16.17;;;;;;;;;;10476091;28;20198;-78
2022/01/25 08:17:11;;;;;;;33.35;15.50;;;;;;;;;;10461736;28;20201;-77
2022/01/25 08:22:13;;;;;;;36.17;15.38;;;;;;;;;;10486532;28;20198;-81
2022/01/25 08:27:15;;;;;;;39.08;17.38;;;;;;;;;;10475922;28;20206;-81
2022/01/25 08:32:16;;;;;;;34.65;16.00;;;;;;;;;;10472909;28;20209;-79
2022/01/25 08:37:18;;;;;;;36.00;16.42;;;;;;;;;;10465643;28;20202;-78
2022/01/25 08:42:19;;;;;;;39.05;16.63;;;;;;;;;;10464029;28;20233;-78
2022/01/25 08:47:20;;;;;;;36.97;16.42;;;;;;;;;;10474487;28;20244;-78
2022/01/25 08:52:21;;;;;;;33.60;15.90;;;;;;;;;;10451119;28;20197;-78
2022/01/25 08:57:23;;;;;;;33.65;16.48;;;;;;;;;;10482478;28;20217;-78
2022/01/25 09:02:24;;;;;;;40.05;17.17;;;;;;;;;;10451871;28;20210;-77
2022/01/25 09:07:25;;;;;;;40.45;19.00;;;;;;;;;;10460935;28;20217;-78
2022/01/25 09:12:27;;;;;;;40.35;17.50;;;;;;;;;;10477081;28;20190;-78
2022/01/25 09:17:28;;;;;;;37.58;17.25;;;;;;;;;;10462737;28;20290;-78
2022/01/25 09:22:30;;;;;;;37.63;16.50;;;;;;;;;;10464870;28;20202;-81
2022/01/25 09:27:31;;;;;;;36.33;15.95;;;;;;;;;;10464389;28;20208;-79
2022/01/25 09:32:32;;;;;;;33.30;15.27;;;;;;;;;;10465762;28;20213;-79
2022/01/25 09:37:33;;;;;;;39.25;15.50;;;;;;;;;;10445044;28;20201;-80
2022/01/25 09:42:34;;;;;;;35.90;15.38;;;;;;;;;;10460976;28;20213;-77
2022/01/25 09:47:39;;;;;;;32.42;15.90;;;;;;;;;;10480432;28;20217;-77
2022/01/25 09:52:44;;;;;;;36.97;16.20;;;;;;;;;;10460868;28;20312;-80
2022/01/25 09:57:45;;;;;;;37.17;16.70;;;;;;;;;;10461151;28;20212;-80
2022/01/25 10:03:01;;;;;;;39.72;16.85;;;;;;;;;;10450686;28;20209;-79
2022/01/25 10:08:10;;;;;;;36.83;16.60;;;;;;;;;;10479669;28;20236;-78
2022/01/25 10:13:17;;;;;;;35.55;16.30;;;;;;;;;;10465749;28;20190;-79
2022/01/25 10:18:18;;;;;;;31.77;15.40;;;;;;;;;;10471211;28;20209;-78
2022/01/25 10:23:22;;;;;;;37.58;16.42;;;;;;;;;;10456410;28;20229;-77
2022/01/25 10:28:25;;;;;;;37.63;16.70;;;;;;;;;;10475068;28;20217;-78
2022/01/25 10:33:30;;;;;;;35.83;16.75;;;;;;;;;;10461929;28;20311;-79
2022/01/25 10:38:33;;;;;;;34.17;15.30;;;;;;;;;;10459809;28;20201;-78
2022/01/25 10:43:35;;;;;;;29.45;14.88;;;;;;;;;;10464006;28;20307;-79
2022/01/25 10:48:36;;;;;;;39.80;17.30;;;;;;;;;;10430396;28;20260;-80
2022/01/25 10:53:37;;;;;;;34.42;16.38;;;;;;;;;;10431998;28;20285;-76
2022/01/25 10:58:40;;;;;;;27.02;14.43;;;;;;;;;;10438072;28;21441;-77
2022/01/25 11:03:42;;;;;;;22.25;12.30;;;;;;;;;;10436726;28;20297;-79
2022/01/25 11:08:44;;;;;;;21.50;12.77;;;;;;;;;;10443895;28;20224;-79
2022/01/25 11:13:49;;;;;;;28.95;14.05;;;;;;;;;;10421482;28;20348;-78
2022/01/25 11:18:50;;;;;;;27.73;14.65;;;;;;;;;;10426865;28;20643;-78
2022/01/25 11:23:52;;;;;;;30.95;14.60;;;;;;;;;;10423657;28;20202;-77
2022/01/25 11:28:53;;;;;;;29.45;14.23;;;;;;;;;;10443850;28;20207;-77
2022/01/25 11:33:54;;;;;;;29.67;15.07;;;;;;;;;;10441434;28;20232;-77
2022/01/25 11:38:55;;;;;;;27.70;15.32;;;;;;;;;;10441713;28;20194;-77
2022/01/25 11:44:07;;;;;;;25.77;13.77;;;;;;;;;;10414181;28;21052;-77
2022/01/25 11:49:14;;;;;;;30.23;14.20;;;;;;;;;;10430754;28;20249;-78
2022/01/25 11:54:16;;;;;;;23.58;12.93;;;;;;;;;;10421214;28;20197;-78
2022/01/25 11:59:17;;;;;;;26.50;12.73;;;;;;;;;;10423788;28;20206;-78
2022/01/25 12:04:18;;;;;;;27.40;13.60;;;;;;;;;;10421397;28;20872;-79
2022/01/25 12:09:41;;;;;;;27.33;14.30;;;;;;;;;;10445503;28;20222;-79
2022/01/25 12:14:41;;;;;;;28.15;14.23;;;;;;;;;;10424230;28;20781;-80
2022/01/25 12:20:03;;;;;;;27.98;13.32;;;;;;;;;;10413365;28;20210;-77
2022/01/25 12:25:11;;;;;;;22.98;11.75;;;;;;;;;;10423507;28;20190;-80
2022/01/25 12:30:14;;;;;;;24.55;12.55;;;;;;;;;;10441598;28;20213;-78
2022/01/25 12:35:17;;;;;;;26.88;13.63;;;;;;;;;;10422761;28;20214;-80
2022/01/25 12:40:31;;;;;;;26.83;14.00;;;;;;;;;;10438036;28;20869;-77
2022/01/25 12:45:34;;;;;;;26.55;14.45;;;;;;;;;;10418554;28;20245;-81
2022/01/25 12:50:36;;;;;;;24.90;12.63;;;;;;;;;;10442382;28;20228;-78
2022/01/25 12:55:42;;;;;;;27.20;14.55;;;;;;;;;;10438935;28;20187;-78
2022/01/25 13:00:44;;;;;;;25.63;13.65;;;;;;;;;;10411837;28;20694;-78
2022/01/25 13:05:47;;;;;;;21.95;12.27;;;;;;;;;;10427325;28;20190;-79
2022/01/25 13:10:50;;;;;;;23.25;11.98;;;;;;;;;;10408160;28;20213;-79
2022/01/25 13:15:56;;;;;;;27.55;11.82;;;;;;;;;;10436117;28;20195;-79
2022/01/25 13:21:08;;;;;;;24.20;12.68;;;;;;;;;;10440931;28;20191;-78
2022/01/25 13:26:14;;;;;;;23.20;11.57;;;;;;;;;;10410989;28;20202;-77
2022/01/25 13:31:15;;;;;;;24.17;11.98;;;;;;;;;;10429377;28;20215;-78
2022/01/25 13:36:22;;;;;;;26.08;12.50;;;;;;;;;;10422851;28;20206;-78
2022/01/25 13:41:27;;;;;;;21.17;11.85;;;;;;;;;;10441824;28;20225;-77
2022/01/25 13:46:36;;;;;;;22.67;12.68;;;;;;;;;;10413201;28;20497;-79
2022/01/25 13:51:40;;;;;;;29.50;12.45;;;;;;;;;;10434537;28;20233;-78
2022/01/25 13:56:41;;;;;;;25.20;12.48;;;;;;;;;;10422503;28;20286;-77
2022/01/25 14:01:42;;;;;;;23.33;12.93;;;;;;;;;;10436816;28;20231;-79
2022/01/25 14:06:45;;;;;;;27.80;12.73;;;;;;;;;;10448902;28;20191;-78
2022/01/25 14:27:18;;;;;;;32.83;13.57;;;;;;;;;;10429403;28;20273;-78
2022/01/25 14:32:28;;;;;;;30.95;14.13;;;;;;;;;;10430715;28;20206;-80
2022/01/25 14:37:29;;;;;;;32.63;14.02;;;;;;;;;;10447432;28;20285;-78
2022/01/25 14:42:30;;;;;;;35.00;14.77;;;;;;;;;;10429288;28;20218;-79
2022/01/25 14:47:37;;;;;;;35.17;15.13;;;;;;;;;;10427983;28;21052;-78
2022/01/25 14:52:38;;;;;;;30.65;13.73;;;;;;;;;;10453760;28;20727;-79
2022/01/25 14:57:51;;;;;;;28.27;13.02;;;;;;;;;;10435040;28;20198;-78
2022/01/25 15:02:53;;;;;;;31.23;14.45;;;;;;;;;;10412930;28;20226;-79
2022/01/25 15:07:54;;;;;;;37.60;15.60;;;;;;;;;;10413333;28;20213;-78
2022/01/25 15:12:55;;;;;;;33.35;16.08;;;;;;;;;;10418351;28;20194;-79
2022/01/25 15:17:56;;;;;;;34.28;15.50;;;;;;;;;;10410539;28;20187;-81
2022/01/25 15:22:58;;;;;;;33.97;15.80;;;;;;;;;;10427785;28;20191;-77
2022/01/25 15:28:00;;;;;;;36.75;16.80;;;;;;;;;;10413156;28;20326;-79
2022/01/25 15:33:02;;;;;;;45.83;16.30;;;;;;;;;;10417250;28;20280;-78
2022/01/25 15:38:03;;;;;;;39.63;17.05;;;;;;;;;;10444464;28;20190;-76
2022/01/25 15:43:06;;;;;;;35.33;16.10;;;;;;;;;;10399813;28;20214;-79
2022/01/25 15:48:07;;;;;;;36.45;16.38;;;;;;;;;;10427315;28;20273;-78
2022/01/25 15:53:08;;;;;;;37.28;16.92;;;;;;;;;;10437059;28;20221;-78
2022/01/25 15:58:09;;;;;;;39.20;17.38;;;;;;;;;;10431935;28;20305;-81
2022/01/25 16:03:10;;;;;;;30.27;15.25;;;;;;;;;;10443352;28;20342;-77
2022/01/25 16:08:14;;;;;;;31.90;16.45;;;;;;;;;;10439883;28;20320;-80
2022/01/25 16:13:16;;;;;;;33.28;15.15;;;;;;;;;;10410899;28;20190;-78
2022/01/25 16:18:17;;;;;;;31.20;14.57;;;;;;;;;;10417157;28;20213;-78
2022/01/25 16:23:18;;;;;;;35.88;16.52;;;;;;;;;;10420016;28;20214;-78
2022/01/25 16:28:19;;;;;;;38.92;17.13;;;;;;;;;;10429416;28;20336;-76
2022/01/25 16:33:20;;;;;;;32.58;15.80;;;;;;;;;;10411950;28;20222;-76
2022/01/25 16:38:21;;;;;;;32.72;14.55;;;;;;;;;;10426219;28;20225;-75
2022/01/25 16:43:22;;;;;;;29.67;14.82;;;;;;;;;;10401904;28;20221;-76
2022/01/25 16:48:23;;;;;;;29.92;13.98;;;;;;;;;;10422982;28;20213;-76
2022/01/25 16:53:25;;;;;;;33.17;14.80;;;;;;;;;;10423381;28;20221;-77
2022/01/25 16:58:27;;;;;;;32.95;14.75;;;;;;;;;;10422880;28;20198;-75
2022/01/25 17:03:28;;;;;;;30.02;15.00;;;;;;;;;;10412512;28;20399;-75
2022/01/25 17:08:29;;;;;;;35.05;16.00;;;;;;;;;;10405808;28;20221;-77
2022/01/25 17:13:30;;;;;;;33.63;15.23;;;;;;;;;;10395553;28;20191;-75
2022/01/25 17:18:31;;;;;;;37.85;16.33;;;;;;;;;;10423484;28;20252;-76
2022/01/25 17:23:33;;;;;;;38.42;17.58;;;;;;;;;;10396722;28;20201;-76
2022/01/25 17:28:34;;;;;;;36.17;16.80;;;;;;;;;;10386143;28;20245;-77
2022/01/25 17:33:35;;;;;;;42.65;18.20;;;;;;;;;;10410430;28;20214;-75
2022/01/25 17:38:36;;;;;;;43.75;17.60;;;;;;;;;;10421032;28;20294;-75
2022/01/25 17:43:38;;;;;;;40.00;17.13;;;;;;;;;;10421812;28;20213;-76
2022/01/25 17:48:39;;;;;;;49.53;18.88;;;;;;;;;;10430493;28;20226;-76
2022/01/25 17:53:40;;;;;;;37.90;17.40;;;;;;;;;;10437901;28;20272;-76
2022/01/25 17:58:41;;;;;;;43.30;18.70;;;;;;;;;;10426064;28;20192;-76
2022/01/25 18:03:42;;;;;;;41.10;18.50;;;;;;;;;;10432036;28;20232;-76
2022/01/25 18:08:43;;;;;;;40.75;18.15;;;;;;;;;;10423452;28;20218;-77
2022/01/25 18:13:45;;;;;;;46.53;18.63;;;;;;;;;;10435144;28;20190;-77
2022/01/25 18:18:46;;;;;;;38.08;16.70;;;;;;;;;;10409224;28;20654;-77
2022/01/25 18:23:52;;;;;;;49.22;19.00;;;;;;;;;;10417401;28;20206;-76
2022/01/25 18:28:53;;;;;;;45.75;17.83;;;;;;;;;;10418115;28;20210;-76
2022/01/25 18:33:54;;;;;;;48.78;19.10;;;;;;;;;;10422162;28;20242;-77
2022/01/25 18:39:00;;;;;;;45.85;18.83;;;;;;;;;;10410583;28;20197;-77
2022/01/25 18:44:02;;;;;;;46.03;18.48;;;;;;;;;;10418123;28;20221;-77
2022/01/25 18:49:05;;;;;;;46.88;19.70;;;;;;;;;;10402427;28;20206;-77
2022/01/25 18:54:07;;;;;;;49.22;19.45;;;;;;;;;;10412125;28;20690;-77
2022/01/25 18:59:08;;;;;;;54.15;21.55;;;;;;;;;;10420771;28;20203;-76
2022/01/25 19:04:09;;;;;;;53.55;20.60;;;;;;;;;;10403003;28;20293;-77
2022/01/25 19:09:10;;;;;;;62.63;21.63;;;;;;;;;;10407826;28;20237;-77
2022/01/25 19:14:12;;;;;;;54.47;20.58;;;;;;;;;;10430189;28;20218;-76
2022/01/25 19:19:17;;;;;;;55.53;21.02;;;;;;;;;;10431073;28;20193;-78
2022/01/25 19:24:19;;;;;;;52.63;20.08;;;;;;;;;;10415907;28;20225;-76
2022/01/25 19:29:20;;;;;;;56.47;21.25;;;;;;;;;;10436901;28;20215;-77
2022/01/25 19:34:22;;;;;;;63.40;21.02;;;;;;;;;;10418427;28;20972;-77
2022/01/25 19:39:23;;;;;;;54.80;21.73;;;;;;;;;;10399860;28;20251;-76
2022/01/25 19:44:24;;;;;;;62.22;22.00;;;;;;;;;;10443661;28;20312;-78
2022/01/25 19:49:25;;;;;;;46.95;19.95;;;;;;;;;;10482939;28;20224;-78
2022/01/25 19:54:29;;;;;;;53.28;22.13;;;;;;;;;;10467574;28;20201;-75
2022/01/25 19:59:30;;;;;;;53.13;21.23;;;;;;;;;;10469789;28;20197;-78
2022/01/25 20:04:34;;;;;;;56.28;21.40;;;;;;;;;;10471937;28;20217;-76
2022/01/25 20:09:42;;;;;;;52.90;20.65;;;;;;;;;;10438054;28;21031;-75
2022/01/25 20:14:47;;;;;;;54.10;20.38;;;;;;;;;;10442439;28;20344;-77
2022/01/25 20:19:50;;;;;;;68.68;21.23;;;;;;;;;;10460883;28;20209;-77
2022/01/25 20:25:01;;;;;;;68.82;22.35;;;;;;;;;;10458666;28;20228;-79
2022/01/25 20:30:19;;;;;;;61.38;20.52;;;;;;;;;;10453156;28;20212;-77
2022/01/25 20:35:24;;;;;;;49.35;19.90;;;;;;;;;;10476390;28;20305;-79
2022/01/25 20:40:25;;;;;;;55.47;19.50;;;;;;;;;;10475048;28;20218;-77
2022/01/25 20:45:27;;;;;;;56.45;20.48;;;;;;;;;;10474176;28;20218;-78
2022/01/25 20:50:28;;;;;;;54.95;19.05;;;;;;;;;;10456788;28;20281;-78
2022/01/25 20:55:29;;;;;;;53.38;19.83;;;;;;;;;;10473384;28;20190;-77
2022/01/25 21:00:40;;;;;;;56.35;21.17;;;;;;;;;;10461823;28;20275;-77
2022/01/25 21:11:00;;;;;;;48.78;19.02;;;;;;;;;;10464654;28;20224;-77
2022/01/25 21:16:02;;;;;;;49.30;19.08;;;;;;;;;;10460168;28;20355;-77
2022/01/25 21:21:09;;;;;;;47.88;18.70;;;;;;;;;;10470330;28;20189;-78
2022/01/25 21:26:10;;;;;;;43.42;17.85;;;;;;;;;;10456516;28;20692;-77
2022/01/25 21:31:12;;;;;;;40.85;16.85;;;;;;;;;;10476031;28;20248;-77
2022/01/25 21:36:14;;;;;;;42.92;18.08;;;;;;;;;;10476318;28;20189;-77
2022/01/25 21:41:16;;;;;;;40.63;16.30;;;;;;;;;;10489529;28;20185;-77
2022/01/25 21:46:17;;;;;;;45.42;17.00;;;;;;;;;;10476701;28;20289;-78
2022/01/25 21:51:18;;;;;;;39.58;17.23;;;;;;;;;;10480785;28;20206;-78
2022/01/25 21:56:19;;;;;;;39.70;16.15;;;;;;;;;;10483028;28;20245;-79
2022/01/25 22:01:20;;;;;;;36.97;15.43;;;;;;;;;;10482007;28;20213;-79
2022/01/25 22:06:33;;;;;;;39.33;15.52;;;;;;;;;;10460330;28;20215;-79
2022/01/25 22:11:35;;;;;;;38.88;15.95;;;;;;;;;;10441736;28;20209;-79
2022/01/25 22:16:36;;;;;;;37.60;14.60;;;;;;;;;;10472702;28;20219;-80
2022/01/25 22:21:39;;;;;;;38.75;15.40;;;;;;;;;;10460309;28;20311;-79
2022/01/25 22:26:40;;;;;;;34.90;13.35;;;;;;;;;;10463556;28;20848;-79
2022/01/25 22:31:41;;;;;;;40.13;14.25;;;;;;;;;;10466780;28;20213;-79
2022/01/25 22:36:42;;;;;;;38.53;14.68;;;;;;;;;;10483888;28;20185;-78
2022/01/25 22:41:43;;;;;;;39.25;14.02;;;;;;;;;;10463389;28;21276;-78
2022/01/25 22:51:48;;;;;;;40.33;14.50;;;;;;;;;;10467014;28;20216;-77
2022/01/25 22:56:50;;;;;;;36.28;15.32;;;;;;;;;;10466296;28;20212;-78
2022/01/25 23:07:11;;;;;;;47.85;15.88;;;;;;;;;;10461865;28;20289;-78
2022/01/25 23:13:25;;;;;;;46.22;16.08;;;;;;;;;;10469223;28;20190;-79
2022/01/25 23:17:38;;;;;;;41.28;14.90;;;;;;;;;;10456734;28;20198;-81
2022/01/25 23:22:39;;;;;;;44.33;16.50;;;;;;;;;;10454061;28;20300;-78
2022/01/25 23:27:41;;;;;;;38.40;14.90;;;;;;;;;;10463466;28;20259;-80
2022/01/25 23:43:08;;;;;;;34.55;14.48;;;;;;;;;;10476017;28;20691;-78
2022/01/25 23:48:12;;;;;;;29.05;12.70;;;;;;;;;;10471439;28;20608;-79
2022/01/25 23:58:54;;;;;;;33.20;12.90;;;;;;;;;;10483261;28;20198;-78
